createdAt,value
2023-05-21T00:01:51.046Z,100.00
2023-05-21T00:03:57.403Z,100.00
2023-05-21T00:06:04.081Z,100.00
2023-05-21T00:08:08.299Z,100.00
2023-05-21T00:10:15.426Z,100.00
2023-05-21T00:12:19.683Z,100.00
2023-05-21T00:14:24.026Z,100.00
2023-05-21T00:16:28.037Z,100.00
2023-05-21T00:18:32.794Z,100.00
2023-05-21T00:20:37.405Z,100.00
2023-05-21T00:22:42.615Z,100.00
2023-05-21T00:24:46.702Z,100.00
2023-05-21T00:26:51.851Z,100.00
2023-05-21T00:28:55.630Z,100.00
2023-05-21T00:30:59.555Z,100.00
2023-05-21T00:33:04.758Z,100.00
2023-05-21T00:35:11.307Z,100.00
2023-05-21T00:37:15.456Z,100.00
2023-05-21T00:39:19.031Z,100.00
2023-05-21T00:41:25.800Z,100.00
2023-05-21T00:43:33.842Z,100.00
2023-05-21T00:45:38.050Z,100.00
2023-05-21T00:47:44.339Z,100.00
2023-05-21T00:49:48.518Z,100.00
2023-05-21T00:51:53.858Z,100.00
2023-05-21T00:53:59.974Z,100.00
2023-05-21T00:56:04.678Z,100.00
2023-05-21T00:58:09.440Z,100.00
2023-05-21T01:00:16.616Z,100.00
2023-05-21T01:02:20.777Z,100.00
2023-05-21T01:04:25.511Z,100.00
2023-05-21T01:06:30.098Z,100.00
2023-05-21T01:08:35.276Z,100.00
2023-05-21T01:10:39.821Z,100.00
2023-05-21T01:12:46.739Z,100.00
2023-05-21T01:14:51.785Z,100.00
2023-05-21T01:16:57.990Z,100.00
2023-05-21T01:19:03.760Z,100.00
2023-05-21T01:21:10.100Z,100.00
2023-05-21T01:23:16.624Z,100.00
2023-05-21T01:25:21.508Z,100.00
2023-05-21T01:27:25.815Z,100.00
2023-05-21T01:29:30.380Z,100.00
2023-05-21T01:31:42.225Z,100.00
2023-05-21T01:33:52.979Z,100.00
2023-05-21T01:36:04.240Z,100.00
2023-05-21T01:38:17.124Z,100.00
2023-05-21T01:40:27.497Z,100.00
2023-05-21T01:42:33.550Z,100.00
2023-05-21T01:44:37.973Z,100.00
2023-05-21T01:46:42.151Z,100.00
2023-05-21T01:48:46.797Z,100.00
2023-05-21T01:50:53.174Z,100.00
2023-05-21T01:52:58.832Z,100.00
2023-05-21T01:55:05.136Z,100.00
2023-05-21T01:57:08.985Z,100.00
2023-05-21T01:59:16.108Z,100.00
2023-05-21T02:01:21.061Z,100.00
2023-05-21T02:03:31.896Z,100.00
2023-05-21T02:05:36.197Z,100.00
2023-05-21T02:07:40.650Z,100.00
2023-05-21T02:09:44.610Z,100.00
2023-05-21T02:11:49.536Z,100.00
2023-05-21T02:13:54.657Z,100.00
2023-05-21T02:15:58.448Z,100.00
2023-05-21T02:18:03.640Z,100.00
2023-05-21T02:20:11.602Z,100.00
2023-05-21T02:22:15.499Z,100.00
2023-05-21T02:24:20.070Z,100.00
2023-05-21T02:26:24.081Z,100.00
2023-05-21T02:28:29.987Z,100.00
2023-05-21T02:30:34.497Z,100.00
2023-05-21T02:32:39.924Z,100.00
2023-05-21T02:34:45.323Z,100.00
2023-05-21T02:36:52.591Z,100.00
2023-05-21T02:38:57.971Z,100.00
2023-05-21T02:41:02.486Z,100.00
2023-05-21T02:43:07.996Z,100.00
2023-05-21T02:45:15.198Z,100.00
2023-05-21T02:47:21.305Z,100.00
2023-05-21T02:49:25.229Z,100.00
2023-05-21T02:51:29.186Z,100.00
2023-05-21T02:53:36.350Z,100.00
2023-05-21T02:55:41.540Z,100.00
2023-05-21T02:57:45.383Z,100.00
2023-05-21T02:59:49.974Z,100.00
2023-05-21T03:01:56.762Z,100.00
2023-05-21T03:04:01.500Z,100.00
2023-05-21T03:06:10.317Z,100.00
2023-05-21T03:08:14.103Z,100.00
2023-05-21T03:10:18.497Z,100.00
2023-05-21T03:12:24.213Z,100.00
2023-05-21T03:14:29.544Z,100.00
2023-05-21T03:16:34.887Z,100.00
2023-05-21T03:18:39.885Z,100.00
2023-05-21T03:20:45.872Z,100.00
2023-05-21T03:22:50.128Z,100.00
2023-05-21T03:24:54.719Z,100.00
2023-05-21T03:26:59.401Z,100.00
2023-05-21T03:29:02.907Z,100.00
2023-05-21T03:31:06.681Z,100.00
2023-05-21T03:33:14.087Z,100.00
2023-05-21T03:35:20.998Z,100.00
2023-05-21T03:37:25.090Z,100.00
2023-05-21T03:39:28.885Z,100.00
2023-05-21T03:41:33.199Z,100.00
2023-05-21T03:43:43.480Z,100.00
2023-05-21T03:45:47.249Z,100.00
2023-05-21T03:48:25.248Z,100.00
2023-05-21T03:50:30.266Z,100.00
2023-05-21T03:52:33.799Z,100.00
2023-05-21T03:54:37.875Z,100.00
2023-05-21T03:56:44.292Z,100.00
2023-05-21T03:58:48.549Z,100.00
2023-05-21T04:00:52.154Z,100.00
2023-05-21T04:02:55.892Z,100.00
2023-05-21T04:04:59.545Z,100.00
2023-05-21T04:07:05.284Z,100.00
2023-05-21T04:09:08.895Z,100.00
2023-05-21T04:11:13.186Z,100.00
2023-05-21T04:13:17.095Z,100.00
2023-05-21T04:15:21.167Z,100.00
2023-05-21T04:17:27.102Z,100.00
2023-05-21T04:19:32.233Z,100.00
2023-05-21T04:21:36.888Z,100.00
2023-05-21T04:23:42.956Z,100.00
2023-05-21T04:25:59.197Z,100.00
2023-05-21T04:28:02.869Z,100.00
2023-05-21T04:30:07.396Z,100.00
2023-05-21T04:32:15.629Z,100.00
2023-05-21T04:34:22.118Z,100.00
2023-05-21T04:36:25.632Z,100.00
2023-05-21T04:38:29.392Z,100.00
2023-05-21T04:40:34.115Z,100.00
2023-05-21T04:42:41.762Z,100.00
2023-05-21T04:44:46.802Z,100.00
2023-05-21T04:46:50.801Z,100.00
2023-05-21T04:48:55.453Z,100.00
2023-05-21T04:51:00.282Z,100.00
2023-05-21T04:53:04.724Z,100.00
2023-05-21T04:55:09.040Z,100.00
2023-05-21T04:57:14.215Z,100.00
2023-05-21T04:59:18.867Z,100.00
2023-05-21T05:01:24.095Z,100.00
2023-05-21T05:03:27.631Z,100.00
2023-05-21T05:05:31.912Z,100.00
2023-05-21T05:07:36.168Z,100.00
2023-05-21T05:09:40.204Z,100.00
2023-05-21T05:11:43.676Z,100.00
2023-05-21T05:13:48.498Z,100.00
2023-05-21T05:15:54.450Z,100.00
2023-05-21T05:17:58.408Z,100.00
2023-05-21T05:20:02.060Z,100.00
2023-05-21T05:22:06.200Z,100.00
2023-05-21T05:24:10.475Z,100.00
2023-05-21T05:26:13.850Z,100.00
2023-05-21T05:28:17.713Z,100.00
2023-05-21T05:30:23.884Z,100.00
2023-05-21T05:32:28.501Z,100.00
2023-05-21T05:34:32.957Z,100.00
2023-05-21T05:36:36.824Z,100.00
2023-05-21T05:38:44.583Z,100.00
2023-05-21T05:40:48.083Z,100.00
2023-05-21T05:42:54.882Z,100.00
2023-05-21T05:45:01.492Z,100.00
2023-05-21T05:47:10.911Z,99.92
2023-05-21T05:49:15.973Z,99.97
2023-05-21T05:51:19.826Z,99.65
2023-05-21T05:53:25.277Z,99.09
2023-05-21T05:55:29.377Z,98.36
2023-05-21T05:57:34.309Z,98.99
2023-05-21T05:59:45.679Z,98.68
2023-05-21T06:01:53.012Z,98.92
2023-05-21T06:04:01.141Z,98.85
2023-05-21T06:06:06.963Z,99.55
2023-05-21T06:08:11.986Z,99.63
2023-05-21T06:10:15.481Z,99.39
2023-05-21T06:12:24.296Z,99.26
2023-05-21T06:14:31.515Z,98.64
2023-05-21T06:16:38.862Z,98.29
2023-05-21T06:18:42.693Z,97.86
2023-05-21T06:20:47.996Z,97.82
2023-05-21T06:22:53.692Z,97.52
2023-05-21T06:24:58.273Z,97.02
2023-05-21T06:27:02.248Z,97.01
2023-05-21T06:29:06.097Z,97.53
2023-05-21T06:31:09.766Z,96.65
2023-05-21T06:33:15.152Z,96.22
2023-05-21T06:35:22.052Z,95.66
2023-05-21T06:37:27.161Z,95.75
2023-05-21T06:39:32.018Z,95.90
2023-05-21T06:41:36.167Z,95.99
2023-05-21T06:43:57.042Z,95.32
2023-05-21T06:46:19.149Z,95.44
2023-05-21T06:48:22.624Z,95.27
2023-05-21T06:50:26.464Z,95.46
2023-05-21T06:52:32.094Z,95.45
2023-05-21T06:54:37.956Z,95.26
2023-05-21T06:56:42.568Z,94.52
2023-05-21T06:58:46.174Z,94.54
2023-05-21T07:00:49.645Z,94.59
2023-05-21T07:02:54.576Z,94.75
2023-05-21T07:04:58.145Z,94.74
2023-05-21T07:07:01.947Z,94.44
2023-05-21T07:09:07.198Z,94.44
2023-05-21T07:11:11.751Z,93.91
2023-05-21T07:13:15.619Z,93.99
2023-05-21T07:15:19.312Z,93.98
2023-05-21T07:17:22.901Z,94.39
2023-05-21T07:19:26.609Z,94.28
2023-05-21T07:21:30.297Z,94.08
2023-05-21T07:23:34.224Z,93.09
2023-05-21T07:25:39.436Z,93.04
2023-05-21T07:27:49.148Z,93.45
2023-05-21T07:29:52.345Z,93.00
2023-05-21T07:31:57.552Z,92.75
2023-05-21T07:34:01.072Z,93.09
2023-05-21T07:36:09.231Z,92.50
2023-05-21T07:38:12.973Z,91.86
2023-05-21T07:40:16.453Z,91.15
2023-05-21T07:42:22.359Z,90.94
2023-05-21T07:44:26.093Z,90.58
2023-05-21T07:46:29.558Z,89.98
2023-05-21T07:48:35.552Z,89.96
2023-05-21T07:50:40.196Z,90.23
2023-05-21T07:52:44.636Z,90.08
2023-05-21T07:54:50.922Z,89.83
2023-05-21T07:56:54.683Z,89.58
2023-05-21T07:59:38.381Z,88.86
2023-05-21T08:01:43.968Z,88.80
2023-05-21T08:03:47.708Z,88.81
2023-05-21T08:05:52.161Z,88.30
2023-05-21T08:07:55.729Z,88.12
2023-05-21T08:10:00.595Z,87.57
2023-05-21T08:12:06.270Z,87.59
2023-05-21T08:14:10.369Z,87.58
2023-05-21T08:16:15.453Z,87.20
2023-05-21T08:18:19.411Z,86.99
2023-05-21T08:20:23.756Z,86.60
2023-05-21T08:22:27.631Z,86.53
2023-05-21T08:24:32.406Z,86.38
2023-05-21T08:26:41.652Z,85.86
2023-05-21T08:28:45.496Z,85.61
2023-05-21T08:30:49.463Z,85.04
2023-05-21T08:32:56.582Z,83.70
2023-05-21T08:35:02.888Z,82.09
2023-05-21T08:37:20.586Z,81.87
2023-05-21T08:39:40.394Z,80.59
2023-05-21T08:41:50.101Z,80.19
2023-05-21T08:43:58.578Z,79.79
2023-05-21T08:46:06.422Z,78.41
2023-05-21T08:48:19.213Z,79.02
2023-05-21T08:50:27.433Z,78.70
2023-05-21T08:52:35.387Z,78.29
2023-05-21T08:54:40.190Z,77.98
2023-05-21T08:56:49.533Z,77.31
2023-05-21T08:58:55.098Z,77.57
2023-05-21T09:01:03.372Z,77.27
2023-05-21T09:03:10.716Z,76.84
2023-05-21T09:05:19.344Z,76.84
2023-05-21T09:07:27.601Z,76.91
2023-05-21T09:09:58.912Z,76.81
2023-05-21T09:12:03.537Z,75.82
2023-05-21T09:14:08.351Z,75.68
2023-05-21T09:16:32.341Z,75.94
2023-05-21T09:18:37.606Z,76.15
2023-05-21T09:21:27.166Z,75.46
2023-05-21T09:23:35.262Z,75.50
2023-05-21T09:25:40.724Z,75.48
2023-05-21T09:27:50.962Z,75.88
2023-05-21T09:29:59.276Z,76.30
2023-05-21T09:32:10.276Z,76.72
2023-05-21T09:34:21.842Z,77.17
2023-05-21T09:36:29.816Z,77.20
2023-05-21T09:38:36.319Z,77.04
2023-05-21T09:40:46.459Z,76.19
2023-05-21T09:42:52.954Z,76.16
2023-05-21T09:44:58.731Z,76.06
2023-05-21T09:47:04.701Z,76.41
2023-05-21T09:49:08.649Z,76.02
2023-05-21T09:51:14.463Z,75.53
2023-05-21T09:53:20.827Z,75.40
2023-05-21T09:55:29.258Z,75.74
2023-05-21T09:57:35.990Z,75.45
2023-05-21T09:59:42.796Z,76.04
2023-05-21T10:01:47.901Z,76.19
2023-05-21T10:03:57.930Z,76.33
2023-05-21T10:06:03.125Z,75.85
2023-05-21T10:08:11.054Z,75.43
2023-05-21T10:10:17.265Z,75.71
2023-05-21T10:12:24.916Z,75.39
2023-05-21T10:14:35.328Z,74.99
2023-05-21T10:16:39.931Z,74.86
2023-05-21T10:18:47.138Z,74.64
2023-05-21T10:20:54.241Z,75.03
2023-05-21T10:22:59.969Z,75.80
2023-05-21T10:25:06.167Z,76.42
2023-05-21T10:27:13.954Z,76.83
2023-05-21T10:29:21.509Z,77.49
2023-05-21T10:31:29.936Z,77.71
2023-05-21T10:33:35.922Z,77.49
2023-05-21T10:35:42.571Z,77.21
2023-05-21T10:37:47.818Z,77.14
2023-05-21T10:39:54.378Z,77.30
2023-05-21T10:42:06.653Z,77.60
2023-05-21T10:44:28.441Z,78.08
2023-05-21T10:47:20.546Z,79.03
2023-05-21T10:50:01.510Z,79.91
2023-05-21T10:52:14.772Z,80.00
2023-05-21T10:54:40.258Z,79.99
2023-05-21T10:56:50.689Z,80.20
2023-05-21T10:59:22.530Z,79.90
2023-05-21T11:01:30.771Z,78.95
2023-05-21T11:03:38.071Z,78.42
2023-05-21T11:05:43.079Z,77.10
2023-05-21T11:07:54.022Z,76.71
2023-05-21T11:10:32.986Z,76.62
2023-05-21T11:12:39.043Z,77.01
2023-05-21T11:14:58.888Z,78.15
2023-05-21T11:17:04.325Z,78.58
2023-05-21T11:19:08.495Z,77.59
2023-05-21T11:21:13.832Z,76.94
2023-05-21T11:23:17.672Z,76.41
2023-05-21T11:25:21.839Z,75.75
2023-05-21T11:27:36.154Z,75.49
2023-05-21T11:29:47.496Z,75.45
2023-05-21T11:32:03.229Z,75.49
2023-05-21T11:34:17.370Z,75.36
2023-05-21T11:36:21.228Z,76.39
2023-05-21T11:38:25.290Z,77.36
2023-05-21T11:40:31.269Z,77.22
2023-05-21T11:42:36.875Z,78.02
2023-05-21T11:44:41.508Z,78.44
2023-05-21T11:46:48.124Z,78.37
2023-05-21T11:48:54.212Z,77.55
2023-05-21T11:51:00.210Z,78.21
2023-05-21T11:53:05.001Z,78.06
2023-05-21T11:55:09.830Z,78.14
2023-05-21T11:57:16.890Z,78.02
2023-05-21T11:59:21.455Z,78.12
2023-05-21T12:01:26.877Z,77.59
2023-05-21T12:03:36.516Z,76.95
2023-05-21T12:05:46.594Z,77.83
2023-05-21T12:07:51.596Z,78.28
2023-05-21T12:09:56.048Z,79.30
2023-05-21T12:11:59.931Z,79.10
2023-05-21T12:14:03.673Z,80.01
2023-05-21T12:16:08.503Z,80.38
2023-05-21T12:18:12.094Z,81.04
2023-05-21T12:20:18.504Z,81.13
2023-05-21T12:22:24.057Z,81.54
2023-05-21T12:24:28.674Z,81.49
2023-05-21T12:26:35.656Z,80.80
2023-05-21T12:28:39.686Z,80.50
2023-05-21T12:30:43.462Z,80.33
2023-05-21T12:32:47.252Z,80.80
2023-05-21T12:34:52.879Z,81.29
2023-05-21T12:36:58.667Z,81.12
2023-05-21T12:39:02.989Z,80.85
2023-05-21T12:41:08.333Z,80.39
2023-05-21T12:43:12.644Z,79.49
2023-05-21T12:45:23.000Z,79.35
2023-05-21T12:47:29.334Z,78.49
2023-05-21T12:49:36.220Z,77.29
2023-05-21T12:51:41.161Z,76.69
2023-05-21T12:53:47.797Z,77.15
2023-05-21T12:55:52.042Z,77.82
2023-05-21T12:58:05.377Z,78.04
2023-05-21T13:00:10.524Z,77.79
2023-05-21T13:02:23.360Z,77.71
2023-05-21T13:04:27.354Z,77.66
2023-05-21T13:06:32.032Z,78.25
2023-05-21T13:08:36.478Z,78.88
2023-05-21T13:10:41.799Z,78.99
2023-05-21T13:12:46.225Z,78.45
2023-05-21T13:14:50.011Z,79.12
2023-05-21T13:16:53.690Z,78.95
2023-05-21T13:18:57.822Z,78.82
2023-05-21T13:21:01.698Z,77.54
2023-05-21T13:23:08.352Z,77.25
2023-05-21T13:25:16.130Z,77.99
2023-05-21T13:27:21.318Z,78.28
2023-05-21T13:29:26.177Z,78.56
2023-05-21T13:31:30.416Z,79.19
2023-05-21T13:33:34.792Z,79.84
2023-05-21T13:35:38.767Z,80.37
2023-05-21T13:37:42.925Z,80.07
2023-05-21T13:39:46.777Z,80.00
2023-05-21T13:41:50.544Z,79.95
2023-05-21T13:43:56.032Z,80.10
2023-05-21T13:45:59.864Z,79.91
2023-05-21T13:48:03.846Z,80.28
2023-05-21T13:50:09.090Z,80.05
2023-05-21T13:52:13.501Z,79.46
2023-05-21T13:54:20.539Z,79.33
2023-05-21T13:56:24.445Z,80.06
2023-05-21T13:58:28.402Z,80.44
2023-05-21T14:00:33.905Z,80.26
2023-05-21T14:02:38.186Z,80.12
2023-05-21T14:04:42.423Z,79.03
2023-05-21T14:06:46.332Z,79.14
2023-05-21T14:08:50.208Z,78.95
2023-05-21T14:10:54.118Z,78.17
2023-05-21T14:13:04.693Z,77.84
2023-05-21T14:15:16.283Z,77.75
2023-05-21T14:17:21.314Z,77.67
2023-05-21T14:19:25.003Z,77.69
2023-05-21T14:21:28.673Z,78.00
2023-05-21T14:23:32.444Z,78.04
2023-05-21T14:25:36.319Z,79.03
2023-05-21T14:27:41.744Z,80.46
2023-05-21T14:29:45.818Z,81.53
2023-05-21T14:31:49.617Z,83.03
2023-05-21T14:33:54.732Z,83.85
2023-05-21T14:35:58.704Z,84.27
2023-05-21T14:38:02.517Z,84.68
2023-05-21T14:40:08.261Z,84.83
2023-05-21T14:42:12.113Z,84.28
2023-05-21T14:44:16.038Z,84.46
2023-05-21T14:46:20.905Z,85.20
2023-05-21T14:48:25.827Z,84.66
2023-05-21T14:50:32.077Z,84.78
2023-05-21T14:52:36.630Z,84.82
2023-05-21T14:54:40.903Z,84.73
2023-05-21T14:56:45.082Z,84.82
2023-05-21T14:58:49.527Z,85.38
2023-05-21T15:00:53.966Z,85.11
2023-05-21T15:02:58.429Z,84.75
2023-05-21T15:05:03.434Z,84.32
2023-05-21T15:07:09.271Z,83.88
2023-05-21T15:09:13.278Z,82.96
2023-05-21T15:11:17.157Z,82.74
2023-05-21T15:13:21.629Z,83.01
2023-05-21T15:15:25.617Z,83.74
2023-05-21T15:17:29.490Z,84.05
2023-05-21T15:19:33.488Z,84.30
2023-05-21T15:21:37.384Z,84.74
2023-05-21T15:23:42.967Z,85.38
2023-05-21T15:25:47.388Z,85.15
2023-05-21T15:27:52.226Z,85.03
2023-05-21T15:29:56.216Z,85.16
2023-05-21T15:32:01.521Z,85.83
2023-05-21T15:34:05.743Z,86.59
2023-05-21T15:36:10.255Z,87.31
2023-05-21T15:38:14.877Z,87.57
2023-05-21T15:40:20.940Z,88.23
2023-05-21T15:42:25.498Z,88.34
2023-05-21T15:44:29.655Z,89.16
2023-05-21T15:46:33.323Z,89.22
2023-05-21T15:48:37.202Z,89.53
2023-05-21T15:50:41.167Z,89.29
2023-05-21T15:52:45.131Z,89.22
2023-05-21T15:54:48.964Z,89.27
2023-05-21T15:56:55.249Z,89.30
2023-05-21T15:59:01.571Z,89.17
2023-05-21T16:01:05.590Z,89.36
2023-05-21T16:03:09.793Z,90.14
2023-05-21T16:05:13.661Z,90.63
2023-05-21T16:07:17.739Z,90.98
2023-05-21T16:09:21.713Z,90.66
2023-05-21T16:11:26.361Z,90.45
2023-05-21T16:13:31.529Z,90.33
2023-05-21T16:15:35.453Z,91.04
2023-05-21T16:17:39.457Z,90.76
2023-05-21T16:19:43.342Z,91.20
2023-05-21T16:21:47.027Z,91.51
2023-05-21T16:23:52.062Z,91.58
2023-05-21T16:25:56.105Z,91.49
2023-05-21T16:28:00.154Z,91.50
2023-05-21T16:30:07.674Z,91.30
2023-05-21T16:32:14.377Z,92.11
2023-05-21T16:34:19.047Z,92.96
2023-05-21T16:36:23.358Z,93.47
2023-05-21T16:38:27.692Z,93.73
2023-05-21T16:40:32.248Z,93.91
2023-05-21T16:42:36.438Z,94.35
2023-05-21T16:44:42.466Z,94.69
2023-05-21T16:46:49.598Z,94.83
2023-05-21T16:48:54.255Z,94.79
2023-05-21T16:50:58.750Z,94.79
2023-05-21T16:53:03.625Z,95.47
2023-05-21T16:55:09.101Z,96.17
2023-05-21T16:57:13.136Z,96.25
2023-05-21T16:59:17.227Z,96.37
2023-05-21T17:01:21.274Z,96.04
2023-05-21T17:03:26.783Z,96.22
2023-05-21T17:05:30.626Z,96.85
2023-05-21T17:07:34.520Z,97.29
2023-05-21T17:09:38.339Z,97.24
2023-05-21T17:11:43.843Z,97.97
2023-05-21T17:13:48.701Z,98.27
2023-05-21T17:15:52.631Z,98.86
2023-05-21T17:18:00.534Z,98.70
2023-05-21T17:20:08.149Z,98.50
2023-05-21T17:22:13.991Z,98.25
2023-05-21T17:24:18.096Z,98.15
2023-05-21T17:26:23.838Z,98.08
2023-05-21T17:28:27.812Z,98.17
2023-05-21T17:30:31.748Z,99.12
2023-05-21T17:32:36.927Z,98.84
2023-05-21T17:34:41.082Z,99.43
2023-05-21T17:36:46.941Z,99.58
2023-05-21T17:38:51.108Z,99.57
2023-05-21T17:40:56.680Z,99.32
2023-05-21T17:43:00.408Z,98.86
2023-05-21T17:45:04.625Z,98.93
2023-05-21T17:47:09.153Z,98.88
2023-05-21T17:49:15.886Z,98.93
2023-05-21T17:51:20.108Z,97.69
2023-05-21T17:53:25.451Z,97.75
2023-05-21T17:55:30.911Z,98.58
2023-05-21T17:57:35.912Z,98.57
2023-05-21T17:59:46.971Z,99.03
2023-05-21T18:01:53.522Z,98.79
2023-05-21T18:03:58.893Z,98.43
2023-05-21T18:06:05.063Z,99.32
2023-05-21T18:08:12.274Z,98.82
2023-05-21T18:10:18.779Z,98.88
2023-05-21T18:12:24.259Z,99.70
2023-05-21T18:14:30.301Z,99.69
2023-05-21T18:16:40.222Z,100.00
2023-05-21T18:18:47.621Z,100.00
2023-05-21T18:20:54.842Z,100.00
2023-05-21T18:23:00.881Z,100.00
2023-05-21T18:25:09.353Z,100.00
2023-05-21T18:27:18.265Z,100.00
2023-05-21T18:29:26.960Z,100.00
2023-05-21T18:31:34.173Z,100.00
2023-05-21T18:33:42.720Z,100.00
2023-05-21T18:35:48.187Z,100.00
2023-05-21T18:37:54.585Z,100.00
2023-05-21T18:40:07.321Z,100.00
2023-05-21T18:42:15.347Z,100.00
2023-05-21T18:44:25.243Z,100.00
2023-05-21T18:46:30.579Z,100.00
2023-05-21T18:48:35.211Z,100.00
2023-05-21T18:50:40.192Z,100.00
2023-05-21T18:52:47.079Z,100.00
2023-05-21T18:54:53.656Z,100.00
2023-05-21T18:57:03.445Z,100.00
2023-05-21T18:59:11.453Z,100.00
2023-05-21T19:01:18.945Z,100.00
2023-05-21T19:03:23.573Z,100.00
2023-05-21T19:05:30.141Z,100.00
2023-05-21T19:07:34.715Z,100.00
2023-05-21T19:09:39.223Z,100.00
2023-05-21T19:11:43.052Z,100.00
2023-05-21T19:13:48.620Z,100.00
2023-05-21T19:15:55.272Z,100.00
2023-05-21T19:18:04.046Z,100.00
2023-05-21T19:20:10.540Z,100.00
2023-05-21T19:22:16.134Z,100.00
2023-05-21T19:24:22.113Z,100.00
2023-05-21T19:26:31.435Z,100.00
2023-05-21T19:28:36.422Z,100.00
2023-05-21T19:30:42.567Z,100.00
2023-05-21T19:32:49.210Z,100.00
2023-05-21T19:34:57.723Z,100.00
2023-05-21T19:37:02.879Z,100.00
2023-05-21T19:39:09.276Z,100.00
2023-05-21T19:41:31.727Z,100.00
2023-05-21T19:43:38.049Z,100.00
2023-05-21T19:45:44.345Z,100.00
2023-05-21T19:47:59.745Z,100.00
2023-05-21T19:50:09.133Z,100.00
2023-05-21T19:52:14.070Z,100.00
2023-05-21T19:54:19.102Z,100.00
2023-05-21T19:56:23.892Z,100.00
2023-05-21T19:58:31.251Z,100.00
2023-05-21T20:00:35.794Z,100.00
2023-05-21T20:02:41.263Z,100.00
2023-05-21T20:04:46.301Z,100.00
2023-05-21T20:06:53.828Z,100.00
2023-05-21T20:08:59.380Z,100.00
2023-05-21T20:11:04.546Z,100.00
2023-05-21T20:13:10.113Z,100.00
2023-05-21T20:15:15.502Z,100.00
2023-05-21T20:17:20.414Z,100.00
2023-05-21T20:19:24.313Z,100.00
2023-05-21T20:21:29.342Z,100.00
2023-05-21T20:23:35.637Z,100.00
2023-05-21T20:25:41.282Z,100.00
2023-05-21T20:27:45.744Z,100.00
2023-05-21T20:29:50.458Z,100.00
2023-05-21T20:31:54.618Z,100.00
2023-05-21T20:33:59.497Z,100.00
2023-05-21T20:36:06.573Z,100.00
2023-05-21T20:38:12.029Z,100.00
2023-05-21T20:40:19.283Z,100.00
2023-05-21T20:42:27.940Z,100.00
2023-05-21T20:44:34.400Z,100.00
2023-05-21T20:46:41.393Z,100.00
2023-05-21T20:48:45.537Z,100.00
2023-05-21T20:50:50.331Z,100.00
2023-05-21T20:52:58.737Z,100.00
2023-05-21T20:55:04.848Z,100.00
2023-05-21T20:57:10.941Z,100.00
2023-05-21T20:59:14.797Z,100.00
2023-05-21T21:01:19.877Z,100.00
2023-05-21T21:03:24.496Z,100.00
2023-05-21T21:05:29.176Z,100.00
2023-05-21T21:07:34.519Z,100.00
2023-05-21T21:09:40.474Z,100.00
2023-05-21T21:11:44.794Z,100.00
2023-05-21T21:13:50.632Z,100.00
2023-05-21T21:15:55.875Z,100.00
2023-05-21T21:18:00.087Z,100.00
2023-05-21T21:20:06.471Z,100.00
2023-05-21T21:22:11.076Z,100.00
2023-05-21T21:24:15.984Z,100.00
2023-05-21T21:26:20.428Z,100.00
2023-05-21T21:28:24.587Z,100.00
2023-05-21T21:30:29.651Z,100.00
2023-05-21T21:32:33.814Z,100.00
2023-05-21T21:34:37.793Z,100.00
2023-05-21T21:36:41.990Z,100.00
2023-05-21T21:38:45.775Z,100.00
2023-05-21T21:40:50.012Z,100.00
2023-05-21T21:42:54.554Z,100.00
2023-05-21T21:44:58.178Z,100.00
2023-05-21T21:47:04.490Z,100.00
2023-05-21T21:49:08.284Z,100.00
2023-05-21T21:51:13.135Z,100.00
2023-05-21T21:53:17.102Z,100.00
2023-05-21T21:55:21.494Z,100.00
2023-05-21T21:57:27.907Z,100.00
2023-05-21T21:59:31.804Z,100.00
2023-05-21T22:01:36.277Z,100.00
2023-05-21T22:03:41.791Z,100.00
2023-05-21T22:05:46.412Z,100.00
2023-05-21T22:07:50.979Z,100.00
2023-05-21T22:09:54.808Z,100.00
2023-05-21T22:11:58.768Z,100.00
2023-05-21T22:14:03.147Z,100.00
2023-05-21T22:16:08.006Z,100.00
2023-05-21T22:18:13.151Z,100.00
2023-05-21T22:20:18.961Z,100.00
2023-05-21T22:22:23.561Z,100.00
2023-05-21T22:24:32.493Z,100.00
2023-05-21T22:26:37.202Z,99.97
2023-05-21T22:28:41.138Z,99.72
2023-05-21T22:30:45.779Z,99.91
2023-05-21T22:32:49.833Z,100.00
2023-05-21T22:34:53.681Z,100.00
2023-05-21T22:36:59.249Z,99.69
2023-05-21T22:39:03.888Z,99.64
2023-05-21T22:41:08.925Z,99.78
2023-05-21T22:43:13.075Z,99.95
2023-05-21T22:45:19.137Z,99.72
2023-05-21T22:47:23.228Z,99.89
2023-05-21T22:49:28.041Z,99.42
2023-05-21T22:51:34.860Z,99.90
2023-05-21T22:53:40.401Z,100.00
2023-05-21T22:55:44.333Z,100.00
2023-05-21T22:57:49.810Z,100.00
2023-05-21T22:59:53.836Z,99.73
2023-05-21T23:01:58.363Z,99.56
2023-05-21T23:04:02.442Z,99.80
2023-05-21T23:06:06.791Z,99.69
2023-05-21T23:08:11.437Z,100.00
2023-05-21T23:10:17.308Z,100.00
2023-05-21T23:12:21.348Z,100.00
2023-05-21T23:14:25.591Z,100.00
2023-05-21T23:16:31.015Z,100.00
2023-05-21T23:18:35.703Z,100.00
2023-05-21T23:20:42.327Z,100.00
2023-05-21T23:22:47.057Z,100.00
2023-05-21T23:24:52.587Z,100.00
2023-05-21T23:27:03.050Z,100.00
2023-05-21T23:29:07.306Z,100.00
2023-05-21T23:31:11.469Z,100.00
2023-05-21T23:33:16.313Z,100.00
2023-05-21T23:35:20.485Z,100.00
2023-05-21T23:37:24.477Z,100.00
2023-05-21T23:39:29.580Z,100.00
2023-05-21T23:41:33.890Z,100.00
2023-05-21T23:43:40.328Z,100.00
2023-05-21T23:45:44.160Z,100.00
2023-05-21T23:47:48.246Z,100.00
2023-05-21T23:49:52.423Z,100.00
2023-05-21T23:51:57.048Z,100.00
2023-05-21T23:54:00.661Z,100.00
2023-05-21T23:56:06.951Z,100.00
2023-05-21T23:58:10.969Z,100.00
